sensor_id;sensor_type;location;lat;lon;timestamp;pressure;altitude;pressure_sealevel;temperature;humidity
59443;BME280;45247;47.466;19.004;2022-07-24T00:00:39;99872.59;;;23.76;100.00
59443;BME280;45247;47.466;19.004;2022-07-24T00:03:07;99862.34;;;24.03;100.00
59443;BME280;45247;47.466;19.004;2022-07-24T00:05:35;99865.50;;;24.29;100.00
59443;BME280;45247;47.466;19.004;2022-07-24T00:08:04;99860.91;;;24.38;100.00
59443;BME280;45247;47.466;19.004;2022-07-24T00:10:32;99860.72;;;24.39;100.00
59443;BME280;45247;47.466;19.004;2022-07-24T00:13:00;99844.22;;;24.34;100.00
59443;BME280;45247;47.466;19.004;2022-07-24T00:15:30;99847.28;;;24.31;100.00
59443;BME280;45247;47.466;19.004;2022-07-24T00:17:58;99840.28;;;24.22;100.00
59443;BME280;45247;47.466;19.004;2022-07-24T00:20:26;99849.94;;;24.16;100.00
59443;BME280;45247;47.466;19.004;2022-07-24T00:22:55;99846.75;;;24.13;100.00
59443;BME280;45247;47.466;19.004;2022-07-24T00:25:23;99856.69;;;24.12;100.00
59443;BME280;45247;47.466;19.004;2022-07-24T00:27:51;99862.56;;;24.16;100.00
59443;BME280;45247;47.466;19.004;2022-07-24T00:30:19;99872.53;;;24.15;100.00
59443;BME280;45247;47.466;19.004;2022-07-24T00:32:49;99861.59;;;24.09;100.00
59443;BME280;45247;47.466;19.004;2022-07-24T00:35:17;99868.78;;;23.93;100.00
59443;BME280;45247;47.466;19.004;2022-07-24T00:37:45;99879.44;;;23.87;100.00
59443;BME280;45247;47.466;19.004;2022-07-24T00:40:14;99885.66;;;23.87;100.00
59443;BME280;45247;47.466;19.004;2022-07-24T00:42:42;99877.28;;;23.82;100.00
59443;BME280;45247;47.466;19.004;2022-07-24T00:45:11;99872.59;;;23.76;100.00
59443;BME280;45247;47.466;19.004;2022-07-24T00:47:52;99872.47;;;23.61;100.00
59443;BME280;45247;47.466;19.004;2022-07-24T00:50:23;99874.34;;;23.61;100.00
59443;BME280;45247;47.466;19.004;2022-07-24T00:52:51;99873.00;;;23.65;100.00
59443;BME280;45247;47.466;19.004;2022-07-24T00:55:20;99876.34;;;23.67;100.00
59443;BME280;45247;47.466;19.004;2022-07-24T00:57:48;99870.31;;;23.65;100.00
59443;BME280;45247;47.466;19.004;2022-07-24T01:00:21;99867.91;;;23.70;100.00
59443;BME280;45247;47.466;19.004;2022-07-24T01:02:51;99857.78;;;23.72;100.00
59443;BME280;45247;47.466;19.004;2022-07-24T01:05:20;99854.25;;;23.71;100.00
59443;BME280;45247;47.466;19.004;2022-07-24T01:07:48;99848.72;;;23.73;100.00
59443;BME280;45247;47.466;19.004;2022-07-24T01:10:16;99845.66;;;23.76;100.00
59443;BME280;45247;47.466;19.004;2022-07-24T01:12:44;99836.25;;;23.72;100.00
59443;BME280;45247;47.466;19.004;2022-07-24T01:15:13;99834.91;;;23.68;100.00
59443;BME280;45247;47.466;19.004;2022-07-24T01:17:42;99831.56;;;23.66;100.00
59443;BME280;45247;47.466;19.004;2022-07-24T01:20:11;99834.88;;;23.76;100.00
59443;BME280;45247;47.466;19.004;2022-07-24T01:22:41;99843.28;;;23.81;100.00
59443;BME280;45247;47.466;19.004;2022-07-24T01:25:09;99851.66;;;23.86;100.00
59443;BME280;45247;47.466;19.004;2022-07-24T01:27:39;99850.94;;;23.92;100.00
59443;BME280;45247;47.466;19.004;2022-07-24T01:30:08;99856.09;;;24.02;100.00
59443;BME280;45247;47.466;19.004;2022-07-24T01:32:36;99849.16;;;24.08;100.00
59443;BME280;45247;47.466;19.004;2022-07-24T01:35:06;99845.56;;;24.15;100.00
59443;BME280;45247;47.466;19.004;2022-07-24T01:37:34;99844.84;;;24.21;100.00
59443;BME280;45247;47.466;19.004;2022-07-24T01:40:04;99850.50;;;24.27;100.00
59443;BME280;45247;47.466;19.004;2022-07-24T01:42:33;99841.59;;;24.26;100.00
59443;BME280;45247;47.466;19.004;2022-07-24T01:45:01;99830.44;;;24.29;100.00
59443;BME280;45247;47.466;19.004;2022-07-24T01:47:29;99838.16;;;24.32;100.00
59443;BME280;45247;47.466;19.004;2022-07-24T01:49:57;99828.41;;;24.31;100.00
59443;BME280;45247;47.466;19.004;2022-07-24T01:52:25;99837.16;;;24.33;100.00
59443;BME280;45247;47.466;19.004;2022-07-24T01:54:53;99838.13;;;24.40;100.00
59443;BME280;45247;47.466;19.004;2022-07-24T01:57:23;99839.81;;;24.41;100.00
59443;BME280;45247;47.466;19.004;2022-07-24T01:59:55;99843.50;;;24.40;100.00
59443;BME280;45247;47.466;19.004;2022-07-24T02:02:24;99857.66;;;24.42;100.00
59443;BME280;45247;47.466;19.004;2022-07-24T02:04:53;99857.84;;;24.41;100.00
59443;BME280;45247;47.466;19.004;2022-07-24T02:07:21;99858.53;;;24.35;100.00
59443;BME280;45247;47.466;19.004;2022-07-24T02:09:49;99856.88;;;24.34;100.00
59443;BME280;45247;47.466;19.004;2022-07-24T02:12:17;99849.13;;;24.31;100.00
59443;BME280;45247;47.466;19.004;2022-07-24T02:14:47;99845.97;;;24.27;100.00
59443;BME280;45247;47.466;19.004;2022-07-24T02:17:15;99846.63;;;24.29;100.00
59443;BME280;45247;47.466;19.004;2022-07-24T02:19:43;99849.50;;;24.28;100.00
59443;BME280;45247;47.466;19.004;2022-07-24T02:22:11;99859.16;;;24.22;100.00
59443;BME280;45247;47.466;19.004;2022-07-24T02:24:39;99853.16;;;24.12;100.00
59443;BME280;45247;47.466;19.004;2022-07-24T02:27:07;99852.59;;;23.93;100.00
59443;BME280;45247;47.466;19.004;2022-07-24T02:29:35;99856.75;;;23.81;100.00
59443;BME280;45247;47.466;19.004;2022-07-24T02:32:06;99854.47;;;23.62;100.00
59443;BME280;45247;47.466;19.004;2022-07-24T02:34:34;99858.53;;;23.58;100.00
59443;BME280;45247;47.466;19.004;2022-07-24T02:37:03;99858.72;;;23.56;100.00
59443;BME280;45247;47.466;19.004;2022-07-24T02:39:31;99861.25;;;23.49;100.00
59443;BME280;45247;47.466;19.004;2022-07-24T02:41:59;99854.19;;;23.48;100.00
59443;BME280;45247;47.466;19.004;2022-07-24T02:44:27;99851.69;;;23.47;100.00
59443;BME280;45247;47.466;19.004;2022-07-24T02:46:55;99836.84;;;23.51;100.00
59443;BME280;45247;47.466;19.004;2022-07-24T02:49:25;99816.97;;;23.52;100.00
59443;BME280;45247;47.466;19.004;2022-07-24T02:51:53;99806.03;;;23.54;100.00
59443;BME280;45247;47.466;19.004;2022-07-24T02:54:21;99800.81;;;23.52;100.00
59443;BME280;45247;47.466;19.004;2022-07-24T02:56:49;99797.94;;;23.54;100.00
59443;BME280;45247;47.466;19.004;2022-07-24T02:59:17;99807.34;;;23.58;100.00
59443;BME280;45247;47.466;19.004;2022-07-24T03:01:46;99821.13;;;23.63;100.00
59443;BME280;45247;47.466;19.004;2022-07-24T03:04:14;99823.16;;;23.69;100.00
59443;BME280;45247;47.466;19.004;2022-07-24T03:06:44;99820.75;;;23.74;100.00
59443;BME280;45247;47.466;19.004;2022-07-24T03:09:12;99824.53;;;23.65;100.00
59443;BME280;45247;47.466;19.004;2022-07-24T03:11:40;99828.88;;;23.58;100.00
59443;BME280;45247;47.466;19.004;2022-07-24T03:14:08;99830.50;;;23.44;100.00
59443;BME280;45247;47.466;19.004;2022-07-24T03:16:36;99834.44;;;23.25;100.00
59443;BME280;45247;47.466;19.004;2022-07-24T03:19:05;99830.41;;;23.21;100.00
59443;BME280;45247;47.466;19.004;2022-07-24T03:21:34;99822.53;;;23.11;100.00
59443;BME280;45247;47.466;19.004;2022-07-24T03:24:18;99825.22;;;23.11;100.00
59443;BME280;45247;47.466;19.004;2022-07-24T03:26:46;99829.16;;;23.01;100.00
59443;BME280;45247;47.466;19.004;2022-07-24T03:29:15;99828.16;;;22.93;100.00
59443;BME280;45247;47.466;19.004;2022-07-24T03:31:43;99822.97;;;22.92;100.00
59443;BME280;45247;47.466;19.004;2022-07-24T03:34:11;99809.66;;;22.90;100.00
59443;BME280;45247;47.466;19.004;2022-07-24T03:36:40;99814.34;;;22.88;100.00
59443;BME280;45247;47.466;19.004;2022-07-24T03:39:08;99808.66;;;22.83;100.00
59443;BME280;45247;47.466;19.004;2022-07-24T03:41:37;99805.97;;;22.83;100.00
59443;BME280;45247;47.466;19.004;2022-07-24T03:44:05;99811.50;;;22.82;100.00
59443;BME280;45247;47.466;19.004;2022-07-24T03:46:34;99830.84;;;22.77;100.00
59443;BME280;45247;47.466;19.004;2022-07-24T03:49:02;99824.13;;;22.73;100.00
59443;BME280;45247;47.466;19.004;2022-07-24T03:51:32;99823.28;;;22.81;100.00
59443;BME280;45247;47.466;19.004;2022-07-24T03:54:03;99824.44;;;22.86;100.00
59443;BME280;45247;47.466;19.004;2022-07-24T03:56:31;99828.66;;;22.97;100.00
59443;BME280;45247;47.466;19.004;2022-07-24T03:59:01;99821.34;;;23.22;100.00
59443;BME280;45247;47.466;19.004;2022-07-24T04:01:30;99823.97;;;23.38;100.00
59443;BME280;45247;47.466;19.004;2022-07-24T04:03:58;99815.91;;;23.61;100.00
59443;BME280;45247;47.466;19.004;2022-07-24T04:06:32;99818.59;;;23.92;100.00
59443;BME280;45247;47.466;19.004;2022-07-24T04:09:04;99813.59;;;24.27;100.00
59443;BME280;45247;47.466;19.004;2022-07-24T04:11:33;99819.94;;;24.57;100.00
59443;BME280;45247;47.466;19.004;2022-07-24T04:14:03;99818.28;;;24.86;100.00
59443;BME280;45247;47.466;19.004;2022-07-24T04:16:31;99830.97;;;25.15;100.00
59443;BME280;45247;47.466;19.004;2022-07-24T04:18:59;99828.19;;;26.38;100.00
59443;BME280;45247;47.466;19.004;2022-07-24T04:21:32;99824.94;;;28.55;95.27
59443;BME280;45247;47.466;19.004;2022-07-24T04:24:01;99826.78;;;29.97;83.87
59443;BME280;45247;47.466;19.004;2022-07-24T04:26:29;99814.38;;;30.83;78.13
59443;BME280;45247;47.466;19.004;2022-07-24T04:28:57;99816.16;;;31.32;74.11
59443;BME280;45247;47.466;19.004;2022-07-24T04:31:26;99821.28;;;31.89;72.25
59443;BME280;45247;47.466;19.004;2022-07-24T04:33:58;99822.13;;;32.55;69.56
59443;BME280;45247;47.466;19.004;2022-07-24T04:36:26;99832.63;;;33.57;64.72
59443;BME280;45247;47.466;19.004;2022-07-24T04:38:54;99833.41;;;33.17;65.38
59443;BME280;45247;47.466;19.004;2022-07-24T04:41:22;99844.25;;;32.77;68.36
59443;BME280;45247;47.466;19.004;2022-07-24T04:43:50;99844.81;;;32.44;68.86
59443;BME280;45247;47.466;19.004;2022-07-24T04:46:18;99858.47;;;31.53;72.57
59443;BME280;45247;47.466;19.004;2022-07-24T04:48:48;99857.03;;;30.46;78.57
59443;BME280;45247;47.466;19.004;2022-07-24T04:51:16;99860.38;;;30.09;79.70
59443;BME280;45247;47.466;19.004;2022-07-24T04:53:44;99864.78;;;29.72;82.83
59443;BME280;45247;47.466;19.004;2022-07-24T04:56:13;99874.63;;;28.95;85.00
59443;BME280;45247;47.466;19.004;2022-07-24T04:58:41;99888.22;;;28.62;86.74
59443;BME280;45247;47.466;19.004;2022-07-24T05:01:09;99890.03;;;28.28;87.15
59443;BME280;45247;47.466;19.004;2022-07-24T05:03:38;99897.63;;;27.78;90.97
59443;BME280;45247;47.466;19.004;2022-07-24T05:06:07;99895.56;;;27.39;94.04
59443;BME280;45247;47.466;19.004;2022-07-24T05:08:36;99903.09;;;27.43;93.93
59443;BME280;45247;47.466;19.004;2022-07-24T05:11:04;99901.34;;;27.29;96.80
59443;BME280;45247;47.466;19.004;2022-07-24T05:13:32;99896.72;;;27.23;98.75
59443;BME280;45247;47.466;19.004;2022-07-24T05:16:00;99901.72;;;27.19;100.00
59443;BME280;45247;47.466;19.004;2022-07-24T05:18:28;99911.75;;;27.32;99.05
59443;BME280;45247;47.466;19.004;2022-07-24T05:20:57;99910.81;;;27.94;94.70
59443;BME280;45247;47.466;19.004;2022-07-24T05:23:26;99917.19;;;28.28;92.49
59443;BME280;45247;47.466;19.004;2022-07-24T05:25:56;99924.09;;;28.37;91.95
59443;BME280;45247;47.466;19.004;2022-07-24T05:28:24;99916.09;;;29.49;83.45
59443;BME280;45247;47.466;19.004;2022-07-24T05:30:52;99920.41;;;30.53;78.35
59443;BME280;45247;47.466;19.004;2022-07-24T05:33:20;99928.25;;;31.17;75.26
59443;BME280;45247;47.466;19.004;2022-07-24T05:35:48;99929.88;;;30.12;80.24
59443;BME280;45247;47.466;19.004;2022-07-24T05:38:16;99929.41;;;30.28;78.74
59443;BME280;45247;47.466;19.004;2022-07-24T05:40:47;99938.94;;;28.81;84.99
59443;BME280;45247;47.466;19.004;2022-07-24T05:43:15;99934.34;;;28.68;87.47
59443;BME280;45247;47.466;19.004;2022-07-24T05:45:44;99933.97;;;29.05;84.72
59443;BME280;45247;47.466;19.004;2022-07-24T05:48:12;99931.28;;;29.76;81.91
59443;BME280;45247;47.466;19.004;2022-07-24T05:50:40;99936.41;;;31.79;71.98
59443;BME280;45247;47.466;19.004;2022-07-24T05:53:08;99929.00;;;32.58;65.36
59443;BME280;45247;47.466;19.004;2022-07-24T05:55:36;99935.69;;;32.74;64.41
59443;BME280;45247;47.466;19.004;2022-07-24T05:58:06;99934.75;;;31.78;69.15
59443;BME280;45247;47.466;19.004;2022-07-24T06:00:34;99931.81;;;32.10;66.00
59443;BME280;45247;47.466;19.004;2022-07-24T06:03:02;99933.03;;;30.47;73.52
59443;BME280;45247;47.466;19.004;2022-07-24T06:05:31;99938.44;;;31.04;73.57
59443;BME280;45247;47.466;19.004;2022-07-24T06:07:59;99939.22;;;31.11;71.52
59443;BME280;45247;47.466;19.004;2022-07-24T06:10:27;99929.97;;;31.12;72.03
59443;BME280;45247;47.466;19.004;2022-07-24T06:12:55;99929.72;;;31.38;68.48
59443;BME280;45247;47.466;19.004;2022-07-24T06:15:26;99943.22;;;31.70;68.30
59443;BME280;45247;47.466;19.004;2022-07-24T06:17:55;99947.16;;;31.37;69.71
59443;BME280;45247;47.466;19.004;2022-07-24T06:20:23;99934.44;;;31.50;69.00
59443;BME280;45247;47.466;19.004;2022-07-24T06:22:52;99944.00;;;31.40;65.67
59443;BME280;45247;47.466;19.004;2022-07-24T06:25:20;99948.75;;;30.70;71.25
59443;BME280;45247;47.466;19.004;2022-07-24T06:27:50;99958.56;;;30.78;72.60
59443;BME280;45247;47.466;19.004;2022-07-24T06:30:21;99950.66;;;31.45;70.25
59443;BME280;45247;47.466;19.004;2022-07-24T06:32:52;99960.50;;;31.82;66.57
59443;BME280;45247;47.466;19.004;2022-07-24T06:35:22;99961.69;;;31.68;67.37
59443;BME280;45247;47.466;19.004;2022-07-24T06:37:50;99965.47;;;32.22;65.58
59443;BME280;45247;47.466;19.004;2022-07-24T06:40:19;99966.25;;;32.83;63.45
59443;BME280;45247;47.466;19.004;2022-07-24T06:42:48;99961.41;;;33.32;59.34
59443;BME280;45247;47.466;19.004;2022-07-24T06:45:16;99963.66;;;33.23;59.67
59443;BME280;45247;47.466;19.004;2022-07-24T06:47:44;99961.31;;;33.15;57.03
59443;BME280;45247;47.466;19.004;2022-07-24T06:50:15;99958.44;;;32.45;61.11
59443;BME280;45247;47.466;19.004;2022-07-24T06:52:43;99960.72;;;32.48;60.93
59443;BME280;45247;47.466;19.004;2022-07-24T06:55:12;99966.16;;;32.48;60.37
59443;BME280;45247;47.466;19.004;2022-07-24T06:57:40;99963.00;;;32.62;58.09
59443;BME280;45247;47.466;19.004;2022-07-24T07:00:09;99971.09;;;31.90;59.76
59443;BME280;45247;47.466;19.004;2022-07-24T07:02:38;99977.81;;;31.33;63.36
59443;BME280;45247;47.466;19.004;2022-07-24T07:05:07;99975.03;;;30.89;65.25
59443;BME280;45247;47.466;19.004;2022-07-24T07:07:38;99973.19;;;31.33;63.11
59443;BME280;45247;47.466;19.004;2022-07-24T07:10:07;99975.34;;;31.50;63.30
59443;BME280;45247;47.466;19.004;2022-07-24T07:12:35;99968.75;;;31.76;62.26
59443;BME280;45247;47.466;19.004;2022-07-24T07:15:07;99981.88;;;32.04;61.78
59443;BME280;45247;47.466;19.004;2022-07-24T07:17:37;99973.19;;;30.83;65.04
59443;BME280;45247;47.466;19.004;2022-07-24T07:20:06;99986.81;;;30.83;65.99
59443;BME280;45247;47.466;19.004;2022-07-24T07:22:36;99988.72;;;31.08;65.89
59443;BME280;45247;47.466;19.004;2022-07-24T07:25:05;99980.41;;;30.71;64.98
59443;BME280;45247;47.466;19.004;2022-07-24T07:27:34;99975.59;;;30.73;64.40
59443;BME280;45247;47.466;19.004;2022-07-24T07:30:03;99981.09;;;30.91;64.67
59443;BME280;45247;47.466;19.004;2022-07-24T07:32:31;99984.47;;;31.12;62.74
59443;BME280;45247;47.466;19.004;2022-07-24T07:35:00;99994.88;;;30.65;62.23
59443;BME280;45247;47.466;19.004;2022-07-24T07:37:31;99988.47;;;30.53;64.26
59443;BME280;45247;47.466;19.004;2022-07-24T07:40:00;99983.06;;;30.84;62.66
59443;BME280;45247;47.466;19.004;2022-07-24T07:42:28;99979.88;;;30.56;62.13
59443;BME280;45247;47.466;19.004;2022-07-24T07:44:57;99969.03;;;30.04;62.23
59443;BME280;45247;47.466;19.004;2022-07-24T07:47:25;99975.19;;;29.86;64.20
59443;BME280;45247;47.466;19.004;2022-07-24T07:49:53;99983.03;;;29.43;59.88
59443;BME280;45247;47.466;19.004;2022-07-24T07:52:22;99978.88;;;29.20;61.73
59443;BME280;45247;47.466;19.004;2022-07-24T07:54:50;99977.81;;;29.15;63.12
59443;BME280;45247;47.466;19.004;2022-07-24T07:57:20;99985.78;;;29.23;63.99
59443;BME280;45247;47.466;19.004;2022-07-24T08:00:09;99988.28;;;29.11;65.15
59443;BME280;45247;47.466;19.004;2022-07-24T08:02:38;99979.53;;;28.96;65.47
59443;BME280;45247;47.466;19.004;2022-07-24T08:05:07;99995.13;;;28.61;69.72
59443;BME280;45247;47.466;19.004;2022-07-24T08:07:36;99984.09;;;28.95;70.30
59443;BME280;45247;47.466;19.004;2022-07-24T08:10:05;99990.34;;;29.42;67.81
59443;BME280;45247;47.466;19.004;2022-07-24T08:12:38;99991.78;;;29.52;65.28
59443;BME280;45247;47.466;19.004;2022-07-24T08:15:07;99987.00;;;29.40;64.89
59443;BME280;45247;47.466;19.004;2022-07-24T08:17:36;99991.78;;;29.65;63.69
59443;BME280;45247;47.466;19.004;2022-07-24T08:20:05;99995.53;;;29.51;63.93
59443;BME280;45247;47.466;19.004;2022-07-24T08:22:33;99984.44;;;29.72;64.73
59443;BME280;45247;47.466;19.004;2022-07-24T08:25:02;99999.53;;;29.61;66.60
59443;BME280;45247;47.466;19.004;2022-07-24T08:27:30;99996.41;;;29.58;65.76
59443;BME280;45247;47.466;19.004;2022-07-24T08:29:59;99992.69;;;29.26;67.76
59443;BME280;45247;47.466;19.004;2022-07-24T08:32:28;99992.66;;;29.19;69.29
59443;BME280;45247;47.466;19.004;2022-07-24T08:34:56;100001.03;;;29.31;67.41
59443;BME280;45247;47.466;19.004;2022-07-24T08:37:24;100005.81;;;29.29;68.90
59443;BME280;45247;47.466;19.004;2022-07-24T08:39:52;99997.25;;;29.12;69.18
59443;BME280;45247;47.466;19.004;2022-07-24T08:42:22;100003.53;;;29.26;67.32
59443;BME280;45247;47.466;19.004;2022-07-24T08:44:50;100001.41;;;29.48;66.73
59443;BME280;45247;47.466;19.004;2022-07-24T08:47:21;100007.91;;;29.47;65.51
59443;BME280;45247;47.466;19.004;2022-07-24T08:49:53;100008.47;;;29.75;65.44
59443;BME280;45247;47.466;19.004;2022-07-24T08:52:22;100007.03;;;29.66;65.57
59443;BME280;45247;47.466;19.004;2022-07-24T08:54:51;100004.88;;;29.94;58.73
59443;BME280;45247;47.466;19.004;2022-07-24T08:57:20;100006.66;;;30.14;56.67
59443;BME280;45247;47.466;19.004;2022-07-24T08:59:49;100008.09;;;30.30;56.43
59443;BME280;45247;47.466;19.004;2022-07-24T09:02:17;100009.50;;;30.71;53.77
59443;BME280;45247;47.466;19.004;2022-07-24T09:04:47;100011.63;;;30.75;49.35
59443;BME280;45247;47.466;19.004;2022-07-24T09:07:18;100008.75;;;30.25;52.27
59443;BME280;45247;47.466;19.004;2022-07-24T09:09:59;100005.22;;;30.18;53.59
59443;BME280;45247;47.466;19.004;2022-07-24T09:12:31;100005.78;;;30.33;53.25
59443;BME280;45247;47.466;19.004;2022-07-24T09:15:01;100012.91;;;30.28;55.66
59443;BME280;45247;47.466;19.004;2022-07-24T09:17:30;100012.41;;;30.44;55.95
59443;BME280;45247;47.466;19.004;2022-07-24T09:20:01;100001.75;;;30.74;54.03
59443;BME280;45247;47.466;19.004;2022-07-24T09:22:33;100013.56;;;30.93;52.88
59443;BME280;45247;47.466;19.004;2022-07-24T09:25:13;100016.22;;;30.75;51.57
59443;BME280;45247;47.466;19.004;2022-07-24T09:27:47;100015.38;;;30.74;54.66
59443;BME280;45247;47.466;19.004;2022-07-24T09:30:24;100012.63;;;31.06;53.21
59443;BME280;45247;47.466;19.004;2022-07-24T09:32:54;100015.03;;;31.46;52.83
59443;BME280;45247;47.466;19.004;2022-07-24T09:35:29;100012.53;;;31.62;51.35
59443;BME280;45247;47.466;19.004;2022-07-24T09:37:59;100011.03;;;32.22;52.00
59443;BME280;45247;47.466;19.004;2022-07-24T09:40:29;100021.63;;;32.11;51.70
59443;BME280;45247;47.466;19.004;2022-07-24T09:43:19;100017.56;;;32.21;49.96
59443;BME280;45247;47.466;19.004;2022-07-24T09:45:54;100016.22;;;31.93;51.85
59443;BME280;45247;47.466;19.004;2022-07-24T09:48:23;100026.63;;;31.59;52.71
59443;BME280;45247;47.466;19.004;2022-07-24T09:50:55;100009.22;;;30.85;56.00
59443;BME280;45247;47.466;19.004;2022-07-24T09:53:26;100021.63;;;30.81;53.63
59443;BME280;45247;47.466;19.004;2022-07-24T09:56:05;100025.34;;;30.87;54.18
59443;BME280;45247;47.466;19.004;2022-07-24T09:58:36;100023.75;;;30.79;55.93
59443;BME280;45247;47.466;19.004;2022-07-24T10:01:06;100030.22;;;30.78;55.46
59443;BME280;45247;47.466;19.004;2022-07-24T10:03:38;100015.63;;;30.98;55.78
59443;BME280;45247;47.466;19.004;2022-07-24T10:06:10;100013.97;;;30.97;51.53
59443;BME280;45247;47.466;19.004;2022-07-24T10:08:40;100011.78;;;30.80;51.92
59443;BME280;45247;47.466;19.004;2022-07-24T10:11:09;100015.84;;;30.96;51.60
59443;BME280;45247;47.466;19.004;2022-07-24T10:13:38;100014.13;;;31.02;50.78
59443;BME280;45247;47.466;19.004;2022-07-24T10:16:29;100010.91;;;31.11;54.51
59443;BME280;45247;47.466;19.004;2022-07-24T10:19:00;100011.69;;;30.93;54.44
59443;BME280;45247;47.466;19.004;2022-07-24T10:21:32;100018.28;;;31.36;54.24
59443;BME280;45247;47.466;19.004;2022-07-24T10:24:30;100017.94;;;31.01;54.45
59443;BME280;45247;47.466;19.004;2022-07-24T10:27:04;100029.75;;;30.88;54.04
59443;BME280;45247;47.466;19.004;2022-07-24T10:29:34;100027.75;;;31.02;53.53
59443;BME280;45247;47.466;19.004;2022-07-24T10:32:03;100030.88;;;31.05;51.66
59443;BME280;45247;47.466;19.004;2022-07-24T10:34:38;100026.03;;;31.07;51.22
59443;BME280;45247;47.466;19.004;2022-07-24T10:37:15;100022.13;;;30.65;52.19
59443;BME280;45247;47.466;19.004;2022-07-24T10:39:56;100018.81;;;30.56;50.56
59443;BME280;45247;47.466;19.004;2022-07-24T10:42:26;100021.78;;;30.48;51.94
59443;BME280;45247;47.466;19.004;2022-07-24T10:45:14;100025.88;;;30.32;49.30
59443;BME280;45247;47.466;19.004;2022-07-24T10:47:44;100030.84;;;30.42;49.61
59443;BME280;45247;47.466;19.004;2022-07-24T10:50:13;100029.09;;;30.16;47.87
59443;BME280;45247;47.466;19.004;2022-07-24T10:52:44;100024.25;;;30.18;47.02
59443;BME280;45247;47.466;19.004;2022-07-24T10:55:35;100024.34;;;29.91;48.19
59443;BME280;45247;47.466;19.004;2022-07-24T10:58:12;100015.28;;;30.11;47.24
59443;BME280;45247;47.466;19.004;2022-07-24T11:00:44;100019.81;;;30.30;48.83
59443;BME280;45247;47.466;19.004;2022-07-24T11:03:20;100014.50;;;30.80;47.41
59443;BME280;45247;47.466;19.004;2022-07-24T11:06:04;99996.84;;;30.89;46.43
59443;BME280;45247;47.466;19.004;2022-07-24T11:08:38;100009.25;;;31.10;46.88
59443;BME280;45247;47.466;19.004;2022-07-24T11:11:11;100004.91;;;30.71;44.27
59443;BME280;45247;47.466;19.004;2022-07-24T11:13:44;100004.00;;;31.09;43.85
59443;BME280;45247;47.466;19.004;2022-07-24T11:16:25;100000.28;;;31.03;43.39
59443;BME280;45247;47.466;19.004;2022-07-24T11:19:28;100007.22;;;31.24;43.17
59443;BME280;45247;47.466;19.004;2022-07-24T11:22:08;100009.78;;;30.94;43.35
59443;BME280;45247;47.466;19.004;2022-07-24T11:24:41;99999.09;;;30.29;41.29
59443;BME280;45247;47.466;19.004;2022-07-24T11:27:17;100006.44;;;30.22;42.00
59443;BME280;45247;47.466;19.004;2022-07-24T11:29:51;99992.50;;;30.43;43.14
59443;BME280;45247;47.466;19.004;2022-07-24T11:32:20;100001.44;;;30.89;43.52
59443;BME280;45247;47.466;19.004;2022-07-24T11:34:50;99972.38;;;31.08;42.75
59443;BME280;45247;47.466;19.004;2022-07-24T11:37:19;99981.19;;;30.78;42.74
59443;BME280;45247;47.466;19.004;2022-07-24T11:39:49;99967.69;;;31.40;40.44
59443;BME280;45247;47.466;19.004;2022-07-24T11:42:17;99984.66;;;31.42;39.13
59443;BME280;45247;47.466;19.004;2022-07-24T11:44:47;99984.78;;;31.29;37.13
59443;BME280;45247;47.466;19.004;2022-07-24T11:47:17;99982.06;;;31.29;38.84
59443;BME280;45247;47.466;19.004;2022-07-24T11:49:47;99984.03;;;31.15;39.39
59443;BME280;45247;47.466;19.004;2022-07-24T11:52:18;99977.38;;;31.11;38.90
59443;BME280;45247;47.466;19.004;2022-07-24T11:54:49;99969.59;;;31.58;38.47
59443;BME280;45247;47.466;19.004;2022-07-24T11:57:20;99977.56;;;31.78;36.98
59443;BME280;45247;47.466;19.004;2022-07-24T12:00:10;99981.28;;;31.65;35.25
59443;BME280;45247;47.466;19.004;2022-07-24T12:02:43;99969.75;;;31.45;37.42
59443;BME280;45247;47.466;19.004;2022-07-24T12:05:12;99976.22;;;31.87;36.22
59443;BME280;45247;47.466;19.004;2022-07-24T12:07:40;99977.19;;;31.92;36.45
59443;BME280;45247;47.466;19.004;2022-07-24T12:10:10;99959.06;;;31.80;36.74
59443;BME280;45247;47.466;19.004;2022-07-24T12:12:39;99965.72;;;31.47;36.28
59443;BME280;45247;47.466;19.004;2022-07-24T12:15:10;99950.88;;;31.61;37.33
59443;BME280;45247;47.466;19.004;2022-07-24T12:17:55;99956.25;;;31.68;34.79
59443;BME280;45247;47.466;19.004;2022-07-24T12:20:25;99951.41;;;31.52;34.24
59443;BME280;45247;47.466;19.004;2022-07-24T12:22:54;99954.44;;;31.44;34.24
59443;BME280;45247;47.466;19.004;2022-07-24T12:25:24;99946.41;;;31.85;33.86
59443;BME280;45247;47.466;19.004;2022-07-24T12:28:02;99954.91;;;31.96;33.18
59443;BME280;45247;47.466;19.004;2022-07-24T12:30:32;99965.97;;;32.01;32.48
59443;BME280;45247;47.466;19.004;2022-07-24T12:33:03;99956.56;;;31.97;31.99
59443;BME280;45247;47.466;19.004;2022-07-24T12:35:33;99947.38;;;32.09;32.71
59443;BME280;45247;47.466;19.004;2022-07-24T12:38:03;99939.50;;;32.01;32.08
59443;BME280;45247;47.466;19.004;2022-07-24T12:40:34;99951.25;;;32.02;32.01
59443;BME280;45247;47.466;19.004;2022-07-24T12:43:07;99947.75;;;31.76;31.22
59443;BME280;45247;47.466;19.004;2022-07-24T12:45:37;99949.88;;;31.37;31.69
59443;BME280;45247;47.466;19.004;2022-07-24T12:48:08;99938.00;;;31.50;32.34
59443;BME280;45247;47.466;19.004;2022-07-24T12:50:37;99948.13;;;31.43;32.71
59443;BME280;45247;47.466;19.004;2022-07-24T12:53:23;99954.00;;;31.83;32.24
59443;BME280;45247;47.466;19.004;2022-07-24T12:56:06;99946.78;;;31.89;32.72
59443;BME280;45247;47.466;19.004;2022-07-24T12:58:57;99925.78;;;31.71;32.44
59443;BME280;45247;47.466;19.004;2022-07-24T13:01:44;99942.47;;;32.00;33.41